sensor_id;sensor_type;location;lat;lon;timestamp;P1;durP1;ratioP1;P2;durP2;ratioP2
3789;SDS011;1910;49.042;9.028;2022-08-19T00:02:24;19.80;;;15.53;;
3789;SDS011;1910;49.042;9.028;2022-08-19T00:04:50;20.07;;;16.27;;
3789;SDS011;1910;49.042;9.028;2022-08-19T00:07:17;20.53;;;15.23;;
3789;SDS011;1910;49.042;9.028;2022-08-19T00:09:44;20.77;;;16.03;;
3789;SDS011;1910;49.042;9.028;2022-08-19T00:12:10;23.20;;;16.30;;
3789;SDS011;1910;49.042;9.028;2022-08-19T00:14:36;20.43;;;16.70;;
3789;SDS011;1910;49.042;9.028;2022-08-19T00:17:03;23.07;;;16.53;;
3789;SDS011;1910;49.042;9.028;2022-08-19T00:19:30;21.77;;;17.00;;
3789;SDS011;1910;49.042;9.028;2022-08-19T00:21:55;22.70;;;16.47;;
3789;SDS011;1910;49.042;9.028;2022-08-19T00:24:21;20.73;;;14.93;;
3789;SDS011;1910;49.042;9.028;2022-08-19T00:26:48;21.83;;;17.27;;
3789;SDS011;1910;49.042;9.028;2022-08-19T00:29:14;20.20;;;15.97;;
3789;SDS011;1910;49.042;9.028;2022-08-19T00:31:42;19.20;;;15.17;;
3789;SDS011;1910;49.042;9.028;2022-08-19T00:34:09;24.30;;;16.47;;
3789;SDS011;1910;49.042;9.028;2022-08-19T00:36:36;23.00;;;17.23;;
3789;SDS011;1910;49.042;9.028;2022-08-19T00:39:02;21.00;;;15.07;;
3789;SDS011;1910;49.042;9.028;2022-08-19T00:41:29;22.53;;;16.87;;
3789;SDS011;1910;49.042;9.028;2022-08-19T00:44:04;20.90;;;16.10;;
3789;SDS011;1910;49.042;9.028;2022-08-19T00:46:36;21.50;;;16.60;;
3789;SDS011;1910;49.042;9.028;2022-08-19T00:49:06;22.10;;;15.77;;
3789;SDS011;1910;49.042;9.028;2022-08-19T00:51:46;22.43;;;16.43;;
3789;SDS011;1910;49.042;9.028;2022-08-19T00:54:16;24.37;;;16.70;;
3789;SDS011;1910;49.042;9.028;2022-08-19T00:56:43;21.03;;;16.30;;
3789;SDS011;1910;49.042;9.028;2022-08-19T00:59:09;19.43;;;15.20;;
3789;SDS011;1910;49.042;9.028;2022-08-19T01:01:39;22.87;;;17.73;;
3789;SDS011;1910;49.042;9.028;2022-08-19T01:04:06;23.27;;;17.40;;
3789;SDS011;1910;49.042;9.028;2022-08-19T01:06:32;21.67;;;15.80;;
3789;SDS011;1910;49.042;9.028;2022-08-19T01:09:00;26.57;;;18.77;;
3789;SDS011;1910;49.042;9.028;2022-08-19T01:11:26;26.47;;;18.80;;
3789;SDS011;1910;49.042;9.028;2022-08-19T01:13:53;22.93;;;17.93;;
3789;SDS011;1910;49.042;9.028;2022-08-19T01:16:20;23.50;;;16.77;;
3789;SDS011;1910;49.042;9.028;2022-08-19T01:18:48;28.13;;;17.20;;
3789;SDS011;1910;49.042;9.028;2022-08-19T01:21:26;21.67;;;15.97;;
3789;SDS011;1910;49.042;9.028;2022-08-19T01:23:59;22.97;;;17.77;;
3789;SDS011;1910;49.042;9.028;2022-08-19T01:26:25;26.70;;;16.37;;
3789;SDS011;1910;49.042;9.028;2022-08-19T01:28:53;25.23;;;16.20;;
3789;SDS011;1910;49.042;9.028;2022-08-19T01:31:23;22.23;;;15.90;;
3789;SDS011;1910;49.042;9.028;2022-08-19T01:33:51;23.27;;;17.43;;
3789;SDS011;1910;49.042;9.028;2022-08-19T01:36:23;33.53;;;20.93;;
3789;SDS011;1910;49.042;9.028;2022-08-19T01:38:55;25.30;;;18.00;;
3789;SDS011;1910;49.042;9.028;2022-08-19T01:41:21;21.53;;;16.60;;
3789;SDS011;1910;49.042;9.028;2022-08-19T01:43:48;25.90;;;18.47;;
3789;SDS011;1910;49.042;9.028;2022-08-19T01:46:15;25.97;;;18.60;;
3789;SDS011;1910;49.042;9.028;2022-08-19T01:48:42;24.33;;;18.87;;
3789;SDS011;1910;49.042;9.028;2022-08-19T01:51:09;25.50;;;19.80;;
3789;SDS011;1910;49.042;9.028;2022-08-19T01:53:35;25.60;;;18.83;;
3789;SDS011;1910;49.042;9.028;2022-08-19T01:56:01;31.57;;;19.80;;
3789;SDS011;1910;49.042;9.028;2022-08-19T01:58:29;31.70;;;19.50;;
3789;SDS011;1910;49.042;9.028;2022-08-19T02:01:00;26.00;;;18.17;;
3789;SDS011;1910;49.042;9.028;2022-08-19T02:03:26;31.87;;;19.27;;
3789;SDS011;1910;49.042;9.028;2022-08-19T02:05:56;34.30;;;20.37;;
3789;SDS011;1910;49.042;9.028;2022-08-19T02:08:29;31.20;;;20.67;;
3789;SDS011;1910;49.042;9.028;2022-08-19T02:10:56;29.10;;;19.63;;
3789;SDS011;1910;49.042;9.028;2022-08-19T02:13:22;27.90;;;19.70;;
3789;SDS011;1910;49.042;9.028;2022-08-19T02:15:49;30.07;;;19.70;;
3789;SDS011;1910;49.042;9.028;2022-08-19T02:18:14;29.90;;;21.13;;
3789;SDS011;1910;49.042;9.028;2022-08-19T02:20:40;34.47;;;22.43;;
3789;SDS011;1910;49.042;9.028;2022-08-19T02:23:07;29.47;;;20.40;;
3789;SDS011;1910;49.042;9.028;2022-08-19T02:25:32;34.07;;;24.30;;
3789;SDS011;1910;49.042;9.028;2022-08-19T02:27:58;32.63;;;19.73;;
3789;SDS011;1910;49.042;9.028;2022-08-19T02:30:24;29.97;;;21.73;;
3789;SDS011;1910;49.042;9.028;2022-08-19T02:32:50;29.47;;;20.77;;
3789;SDS011;1910;49.042;9.028;2022-08-19T02:35:16;38.73;;;22.47;;
3789;SDS011;1910;49.042;9.028;2022-08-19T02:37:42;31.90;;;23.03;;
3789;SDS011;1910;49.042;9.028;2022-08-19T02:40:27;33.27;;;22.23;;
3789;SDS011;1910;49.042;9.028;2022-08-19T02:42:53;29.83;;;21.57;;
3789;SDS011;1910;49.042;9.028;2022-08-19T02:45:19;34.10;;;22.93;;
3789;SDS011;1910;49.042;9.028;2022-08-19T02:47:44;37.07;;;24.13;;
3789;SDS011;1910;49.042;9.028;2022-08-19T02:50:10;34.80;;;24.10;;
3789;SDS011;1910;49.042;9.028;2022-08-19T02:52:36;33.30;;;24.30;;
3789;SDS011;1910;49.042;9.028;2022-08-19T02:55:02;39.23;;;23.17;;
3789;SDS011;1910;49.042;9.028;2022-08-19T02:57:29;35.70;;;24.20;;
3789;SDS011;1910;49.042;9.028;2022-08-19T02:59:56;34.77;;;24.87;;
3789;SDS011;1910;49.042;9.028;2022-08-19T03:02:22;35.33;;;24.03;;
3789;SDS011;1910;49.042;9.028;2022-08-19T03:04:47;35.20;;;24.10;;
3789;SDS011;1910;49.042;9.028;2022-08-19T03:07:13;38.73;;;24.67;;
3789;SDS011;1910;49.042;9.028;2022-08-19T03:09:39;36.67;;;25.93;;
3789;SDS011;1910;49.042;9.028;2022-08-19T03:12:05;39.17;;;26.77;;
3789;SDS011;1910;49.042;9.028;2022-08-19T03:14:31;32.10;;;23.27;;
3789;SDS011;1910;49.042;9.028;2022-08-19T03:17:00;39.87;;;24.10;;
3789;SDS011;1910;49.042;9.028;2022-08-19T03:19:26;35.90;;;25.50;;
3789;SDS011;1910;49.042;9.028;2022-08-19T03:21:52;36.93;;;25.90;;
3789;SDS011;1910;49.042;9.028;2022-08-19T03:24:18;45.03;;;27.10;;
3789;SDS011;1910;49.042;9.028;2022-08-19T03:26:47;41.13;;;27.37;;
3789;SDS011;1910;49.042;9.028;2022-08-19T03:29:15;38.20;;;27.27;;
3789;SDS011;1910;49.042;9.028;2022-08-19T03:31:42;34.07;;;25.80;;
3789;SDS011;1910;49.042;9.028;2022-08-19T03:34:09;38.00;;;25.37;;
3789;SDS011;1910;49.042;9.028;2022-08-19T03:36:39;36.00;;;25.67;;
3789;SDS011;1910;49.042;9.028;2022-08-19T03:39:05;37.10;;;25.07;;
3789;SDS011;1910;49.042;9.028;2022-08-19T03:41:35;41.27;;;26.93;;
3789;SDS011;1910;49.042;9.028;2022-08-19T03:44:02;36.87;;;26.87;;
3789;SDS011;1910;49.042;9.028;2022-08-19T03:46:30;35.67;;;26.00;;
3789;SDS011;1910;49.042;9.028;2022-08-19T03:48:58;39.20;;;27.40;;
3789;SDS011;1910;49.042;9.028;2022-08-19T03:51:29;40.93;;;28.93;;
3789;SDS011;1910;49.042;9.028;2022-08-19T03:53:57;39.53;;;25.90;;
3789;SDS011;1910;49.042;9.028;2022-08-19T03:56:25;41.43;;;27.20;;
3789;SDS011;1910;49.042;9.028;2022-08-19T03:58:53;35.30;;;26.17;;
3789;SDS011;1910;49.042;9.028;2022-08-19T04:01:23;37.50;;;27.23;;
3789;SDS011;1910;49.042;9.028;2022-08-19T04:03:53;41.97;;;27.47;;
3789;SDS011;1910;49.042;9.028;2022-08-19T04:06:22;36.90;;;25.77;;
3789;SDS011;1910;49.042;9.028;2022-08-19T04:08:53;40.97;;;28.15;;
3789;SDS011;1910;49.042;9.028;2022-08-19T04:11:21;36.43;;;25.83;;
3789;SDS011;1910;49.042;9.028;2022-08-19T04:13:50;37.53;;;26.97;;
3789;SDS011;1910;49.042;9.028;2022-08-19T04:16:17;41.87;;;27.10;;
3789;SDS011;1910;49.042;9.028;2022-08-19T04:18:44;39.40;;;28.00;;
3789;SDS011;1910;49.042;9.028;2022-08-19T04:21:17;37.33;;;26.13;;
3789;SDS011;1910;49.042;9.028;2022-08-19T04:23:45;35.13;;;26.13;;
3789;SDS011;1910;49.042;9.028;2022-08-19T04:26:14;36.20;;;25.80;;
3789;SDS011;1910;49.042;9.028;2022-08-19T04:28:43;45.80;;;26.10;;
3789;SDS011;1910;49.042;9.028;2022-08-19T04:31:13;35.80;;;25.17;;
3789;SDS011;1910;49.042;9.028;2022-08-19T04:33:40;35.13;;;25.57;;
3789;SDS011;1910;49.042;9.028;2022-08-19T04:36:06;45.33;;;27.73;;
3789;SDS011;1910;49.042;9.028;2022-08-19T04:38:32;37.57;;;26.53;;
3789;SDS011;1910;49.042;9.028;2022-08-19T04:40:58;36.80;;;26.60;;
3789;SDS011;1910;49.042;9.028;2022-08-19T04:43:42;32.77;;;24.70;;
3789;SDS011;1910;49.042;9.028;2022-08-19T04:46:14;41.60;;;27.77;;
3789;SDS011;1910;49.042;9.028;2022-08-19T04:48:40;37.37;;;27.00;;
3789;SDS011;1910;49.042;9.028;2022-08-19T04:51:07;37.13;;;27.37;;
3789;SDS011;1910;49.042;9.028;2022-08-19T04:53:35;38.27;;;26.63;;
3789;SDS011;1910;49.042;9.028;2022-08-19T04:56:09;38.70;;;29.03;;
3789;SDS011;1910;49.042;9.028;2022-08-19T04:58:36;41.70;;;28.90;;
3789;SDS011;1910;49.042;9.028;2022-08-19T05:01:03;33.27;;;26.33;;
3789;SDS011;1910;49.042;9.028;2022-08-19T05:03:29;35.73;;;26.43;;
3789;SDS011;1910;49.042;9.028;2022-08-19T05:05:58;41.47;;;28.57;;
3789;SDS011;1910;49.042;9.028;2022-08-19T05:08:36;37.27;;;27.40;;
3789;SDS011;1910;49.042;9.028;2022-08-19T05:11:09;38.50;;;29.27;;
3789;SDS011;1910;49.042;9.028;2022-08-19T05:13:36;41.70;;;26.43;;
3789;SDS011;1910;49.042;9.028;2022-08-19T05:16:02;37.93;;;25.97;;
3789;SDS011;1910;49.042;9.028;2022-08-19T05:18:28;39.17;;;28.00;;
3789;SDS011;1910;49.042;9.028;2022-08-19T05:21:14;42.57;;;28.03;;
3789;SDS011;1910;49.042;9.028;2022-08-19T05:23:59;41.47;;;28.30;;
3789;SDS011;1910;49.042;9.028;2022-08-19T05:26:25;41.53;;;28.70;;
3789;SDS011;1910;49.042;9.028;2022-08-19T05:28:54;41.33;;;27.63;;
3789;SDS011;1910;49.042;9.028;2022-08-19T05:31:20;41.10;;;27.30;;
3789;SDS011;1910;49.042;9.028;2022-08-19T05:33:46;39.43;;;27.67;;
3789;SDS011;1910;49.042;9.028;2022-08-19T05:36:12;36.53;;;27.13;;
3789;SDS011;1910;49.042;9.028;2022-08-19T05:38:38;37.27;;;26.10;;
3789;SDS011;1910;49.042;9.028;2022-08-19T05:41:08;38.80;;;27.73;;
3789;SDS011;1910;49.042;9.028;2022-08-19T05:43:34;34.40;;;27.23;;
3789;SDS011;1910;49.042;9.028;2022-08-19T05:46:01;40.53;;;28.37;;
3789;SDS011;1910;49.042;9.028;2022-08-19T05:48:26;34.00;;;25.10;;
3789;SDS011;1910;49.042;9.028;2022-08-19T05:50:52;35.07;;;26.57;;
3789;SDS011;1910;49.042;9.028;2022-08-19T05:53:19;34.83;;;25.80;;
3789;SDS011;1910;49.042;9.028;2022-08-19T05:55:45;41.30;;;27.07;;
3789;SDS011;1910;49.042;9.028;2022-08-19T05:58:10;35.57;;;26.53;;
3789;SDS011;1910;49.042;9.028;2022-08-19T06:00:36;32.97;;;25.10;;
3789;SDS011;1910;49.042;9.028;2022-08-19T06:03:02;41.60;;;26.50;;
3789;SDS011;1910;49.042;9.028;2022-08-19T06:05:29;37.50;;;27.63;;
3789;SDS011;1910;49.042;9.028;2022-08-19T06:07:55;35.20;;;26.83;;
3789;SDS011;1910;49.042;9.028;2022-08-19T06:10:21;38.60;;;26.43;;
3789;SDS011;1910;49.042;9.028;2022-08-19T06:12:47;43.70;;;27.60;;
3789;SDS011;1910;49.042;9.028;2022-08-19T06:15:13;38.77;;;27.20;;
3789;SDS011;1910;49.042;9.028;2022-08-19T06:17:39;37.00;;;25.10;;
3789;SDS011;1910;49.042;9.028;2022-08-19T06:20:07;36.00;;;25.93;;
3789;SDS011;1910;49.042;9.028;2022-08-19T06:22:46;43.73;;;26.40;;
3789;SDS011;1910;49.042;9.028;2022-08-19T06:25:14;34.07;;;26.30;;
3789;SDS011;1910;49.042;9.028;2022-08-19T06:27:40;41.10;;;28.73;;
3789;SDS011;1910;49.042;9.028;2022-08-19T06:30:06;38.30;;;28.87;;
3789;SDS011;1910;49.042;9.028;2022-08-19T06:32:32;42.00;;;28.60;;
3789;SDS011;1910;49.042;9.028;2022-08-19T06:34:58;42.40;;;30.70;;
3789;SDS011;1910;49.042;9.028;2022-08-19T06:37:23;36.40;;;27.43;;
3789;SDS011;1910;49.042;9.028;2022-08-19T06:39:49;44.30;;;28.63;;
3789;SDS011;1910;49.042;9.028;2022-08-19T06:42:15;38.40;;;26.83;;
3789;SDS011;1910;49.042;9.028;2022-08-19T06:44:43;39.40;;;25.50;;
3789;SDS011;1910;49.042;9.028;2022-08-19T06:47:12;39.67;;;26.67;;
3789;SDS011;1910;49.042;9.028;2022-08-19T06:49:39;37.80;;;27.57;;
3789;SDS011;1910;49.042;9.028;2022-08-19T06:52:06;40.93;;;26.40;;
3789;SDS011;1910;49.042;9.028;2022-08-19T06:54:31;38.43;;;27.37;;
3789;SDS011;1910;49.042;9.028;2022-08-19T06:56:58;34.00;;;25.87;;
3789;SDS011;1910;49.042;9.028;2022-08-19T06:59:27;37.50;;;25.27;;
3789;SDS011;1910;49.042;9.028;2022-08-19T07:01:54;34.30;;;24.70;;
3789;SDS011;1910;49.042;9.028;2022-08-19T07:04:22;38.33;;;27.40;;
3789;SDS011;1910;49.042;9.028;2022-08-19T07:06:50;34.80;;;25.40;;
3789;SDS011;1910;49.042;9.028;2022-08-19T07:09:23;33.80;;;24.20;;
3789;SDS011;1910;49.042;9.028;2022-08-19T07:11:49;36.13;;;22.83;;
3789;SDS011;1910;49.042;9.028;2022-08-19T07:14:18;31.10;;;23.30;;
3789;SDS011;1910;49.042;9.028;2022-08-19T07:16:45;35.70;;;24.43;;
3789;SDS011;1910;49.042;9.028;2022-08-19T07:19:12;33.40;;;22.10;;
3789;SDS011;1910;49.042;9.028;2022-08-19T07:21:39;32.40;;;22.20;;
3789;SDS011;1910;49.042;9.028;2022-08-19T07:24:06;35.50;;;23.37;;
3789;SDS011;1910;49.042;9.028;2022-08-19T07:26:32;31.70;;;22.57;;
3789;SDS011;1910;49.042;9.028;2022-08-19T07:29:03;28.80;;;23.17;;
3789;SDS011;1910;49.042;9.028;2022-08-19T07:31:29;34.63;;;23.63;;
3789;SDS011;1910;49.042;9.028;2022-08-19T07:33:55;32.87;;;21.87;;
3789;SDS011;1910;49.042;9.028;2022-08-19T07:36:23;33.70;;;21.33;;
3789;SDS011;1910;49.042;9.028;2022-08-19T07:38:50;25.63;;;20.63;;
3789;SDS011;1910;49.042;9.028;2022-08-19T07:41:18;30.40;;;23.83;;
3789;SDS011;1910;49.042;9.028;2022-08-19T07:43:46;36.47;;;22.87;;
3789;SDS011;1910;49.042;9.028;2022-08-19T07:46:12;26.97;;;20.80;;
3789;SDS011;1910;49.042;9.028;2022-08-19T07:48:39;25.33;;;21.17;;
3789;SDS011;1910;49.042;9.028;2022-08-19T07:51:06;23.90;;;20.20;;
3789;SDS011;1910;49.042;9.028;2022-08-19T07:53:33;26.10;;;20.67;;
3789;SDS011;1910;49.042;9.028;2022-08-19T07:56:00;27.90;;;19.20;;
3789;SDS011;1910;49.042;9.028;2022-08-19T07:58:27;29.80;;;21.47;;
3789;SDS011;1910;49.042;9.028;2022-08-19T08:00:53;25.40;;;20.53;;
3789;SDS011;1910;49.042;9.028;2022-08-19T08:03:19;23.43;;;19.10;;
3789;SDS011;1910;49.042;9.028;2022-08-19T08:06:06;24.30;;;18.57;;
3789;SDS011;1910;49.042;9.028;2022-08-19T08:08:50;25.93;;;19.23;;
3789;SDS011;1910;49.042;9.028;2022-08-19T08:11:35;22.50;;;19.00;;
3789;SDS011;1910;49.042;9.028;2022-08-19T08:14:00;26.57;;;19.20;;
3789;SDS011;1910;49.042;9.028;2022-08-19T08:16:26;25.50;;;19.13;;
3789;SDS011;1910;49.042;9.028;2022-08-19T08:18:54;30.07;;;17.53;;
3789;SDS011;1910;49.042;9.028;2022-08-19T08:21:20;22.80;;;17.47;;
3789;SDS011;1910;49.042;9.028;2022-08-19T08:23:45;25.57;;;18.60;;
3789;SDS011;1910;49.042;9.028;2022-08-19T08:26:11;22.77;;;18.57;;
3789;SDS011;1910;49.042;9.028;2022-08-19T08:28:37;23.77;;;17.60;;
3789;SDS011;1910;49.042;9.028;2022-08-19T08:31:03;28.27;;;18.80;;
3789;SDS011;1910;49.042;9.028;2022-08-19T08:33:29;24.30;;;17.37;;
3789;SDS011;1910;49.042;9.028;2022-08-19T08:35:55;25.57;;;17.17;;
3789;SDS011;1910;49.042;9.028;2022-08-19T08:38:21;23.73;;;16.43;;
3789;SDS011;1910;49.042;9.028;2022-08-19T08:40:47;20.57;;;16.90;;
3789;SDS011;1910;49.042;9.028;2022-08-19T08:43:22;22.00;;;16.00;;
3789;SDS011;1910;49.042;9.028;2022-08-19T08:51:12;27.03;;;18.23;;
3789;SDS011;1910;49.042;9.028;2022-08-19T08:53:52;23.33;;;15.90;;
3789;SDS011;1910;49.042;9.028;2022-08-19T08:56:20;22.00;;;16.50;;
3789;SDS011;1910;49.042;9.028;2022-08-19T08:58:51;21.83;;;16.80;;
3789;SDS011;1910;49.042;9.028;2022-08-19T09:01:23;23.63;;;16.40;;
3789;SDS011;1910;49.042;9.028;2022-08-19T09:03:49;22.63;;;16.90;;
3789;SDS011;1910;49.042;9.028;2022-08-19T09:06:23;24.07;;;16.40;;
3789;SDS011;1910;49.042;9.028;2022-08-19T09:09:04;20.27;;;17.17;;
3789;SDS011;1910;49.042;9.028;2022-08-19T09:12:05;21.40;;;17.07;;
3789;SDS011;1910;49.042;9.028;2022-08-19T09:17:10;18.73;;;14.53;;
3789;SDS011;1910;49.042;9.028;2022-08-19T09:19:50;21.57;;;15.83;;
3789;SDS011;1910;49.042;9.028;2022-08-19T09:22:18;18.47;;;13.70;;
3789;SDS011;1910;49.042;9.028;2022-08-19T09:24:47;20.07;;;14.77;;
3789;SDS011;1910;49.042;9.028;2022-08-19T09:27:17;19.43;;;15.07;;
3789;SDS011;1910;49.042;9.028;2022-08-19T09:29:43;20.60;;;15.47;;
3789;SDS011;1910;49.042;9.028;2022-08-19T09:32:08;18.80;;;13.63;;
3789;SDS011;1910;49.042;9.028;2022-08-19T09:34:34;16.23;;;13.50;;
3789;SDS011;1910;49.042;9.028;2022-08-19T09:36:59;24.40;;;13.20;;
3789;SDS011;1910;49.042;9.028;2022-08-19T09:39:25;15.53;;;12.90;;
3789;SDS011;1910;49.042;9.028;2022-08-19T09:41:51;25.27;;;15.53;;
3789;SDS011;1910;49.042;9.028;2022-08-19T09:44:17;18.40;;;13.73;;
3789;SDS011;1910;49.042;9.028;2022-08-19T09:46:45;20.97;;;14.03;;
3789;SDS011;1910;49.042;9.028;2022-08-19T09:49:12;13.40;;;12.03;;
3789;SDS011;1910;49.042;9.028;2022-08-19T09:51:37;19.10;;;12.73;;
3789;SDS011;1910;49.042;9.028;2022-08-19T09:54:03;16.50;;;11.80;;
3789;SDS011;1910;49.042;9.028;2022-08-19T09:56:29;13.40;;;11.20;;
3789;SDS011;1910;49.042;9.028;2022-08-19T09:58:57;14.20;;;12.60;;
3789;SDS011;1910;49.042;9.028;2022-08-19T10:01:24;14.63;;;11.97;;
3789;SDS011;1910;49.042;9.028;2022-08-19T10:03:53;11.80;;;9.53;;
3789;SDS011;1910;49.042;9.028;2022-08-19T10:06:21;14.63;;;10.80;;
3789;SDS011;1910;49.042;9.028;2022-08-19T10:08:48;14.50;;;10.10;;
3789;SDS011;1910;49.042;9.028;2022-08-19T10:11:14;12.50;;;10.80;;
3789;SDS011;1910;49.042;9.028;2022-08-19T10:13:42;12.50;;;9.90;;
3789;SDS011;1910;49.042;9.028;2022-08-19T10:16:09;17.80;;;9.50;;
3789;SDS011;1910;49.042;9.028;2022-08-19T10:18:41;15.27;;;10.80;;
3789;SDS011;1910;49.042;9.028;2022-08-19T10:21:14;13.10;;;10.83;;
3789;SDS011;1910;49.042;9.028;2022-08-19T10:23:43;17.70;;;10.47;;
3789;SDS011;1910;49.042;9.028;2022-08-19T10:26:10;12.20;;;10.40;;
3789;SDS011;1910;49.042;9.028;2022-08-19T10:28:41;12.63;;;10.57;;
3789;SDS011;1910;49.042;9.028;2022-08-19T10:31:10;14.93;;;10.70;;
3789;SDS011;1910;49.042;9.028;2022-08-19T10:33:39;15.20;;;12.07;;
3789;SDS011;1910;49.042;9.028;2022-08-19T10:36:07;16.07;;;11.47;;
3789;SDS011;1910;49.042;9.028;2022-08-19T10:38:35;14.17;;;11.63;;
3789;SDS011;1910;49.042;9.028;2022-08-19T10:41:11;13.67;;;11.17;;
3789;SDS011;1910;49.042;9.028;2022-08-19T10:43:42;13.30;;;10.43;;
3789;SDS011;1910;49.042;9.028;2022-08-19T10:46:10;13.90;;;11.83;;
3789;SDS011;1910;49.042;9.028;2022-08-19T10:48:38;15.30;;;10.70;;
3789;SDS011;1910;49.042;9.028;2022-08-19T10:51:04;12.10;;;10.83;;
3789;SDS011;1910;49.042;9.028;2022-08-19T10:53:49;11.57;;;9.93;;
3789;SDS011;1910;49.042;9.028;2022-08-19T10:56:15;13.13;;;11.80;;
3789;SDS011;1910;49.042;9.028;2022-08-19T10:59:00;11.33;;;10.13;;
3789;SDS011;1910;49.042;9.028;2022-08-19T11:01:28;16.60;;;11.40;;
3789;SDS011;1910;49.042;9.028;2022-08-19T11:03:55;17.00;;;11.37;;
3789;SDS011;1910;49.042;9.028;2022-08-19T11:06:22;11.60;;;10.40;;
3789;SDS011;1910;49.042;9.028;2022-08-19T11:08:49;14.13;;;11.70;;
3789;SDS011;1910;49.042;9.028;2022-08-19T11:11:16;14.10;;;11.40;;
3789;SDS011;1910;49.042;9.028;2022-08-19T11:13:42;14.73;;;11.73;;
3789;SDS011;1910;49.042;9.028;2022-08-19T11:16:11;14.90;;;12.40;;
3789;SDS011;1910;49.042;9.028;2022-08-19T11:18:40;13.20;;;10.70;;
3789;SDS011;1910;49.042;9.028;2022-08-19T11:21:13;14.57;;;11.73;;
3789;SDS011;1910;49.042;9.028;2022-08-19T11:23:44;15.73;;;11.97;;
3789;SDS011;1910;49.042;9.028;2022-08-19T11:26:11;14.50;;;10.40;;
3789;SDS011;1910;49.042;9.028;2022-08-19T11:28:37;12.63;;;10.63;;
3789;SDS011;1910;49.042;9.028;2022-08-19T11:31:04;12.00;;;10.80;;
3789;SDS011;1910;49.042;9.028;2022-08-19T11:33:34;11.43;;;10.10;;
3789;SDS011;1910;49.042;9.028;2022-08-19T11:36:00;12.33;;;8.83;;
3789;SDS011;1910;49.042;9.028;2022-08-19T11:38:26;12.93;;;10.77;;
3789;SDS011;1910;49.042;9.028;2022-08-19T11:40:55;14.17;;;10.50;;
3789;SDS011;1910;49.042;9.028;2022-08-19T11:43:22;12.93;;;10.53;;
3789;SDS011;1910;49.042;9.028;2022-08-19T11:45:49;15.80;;;9.80;;
3789;SDS011;1910;49.042;9.028;2022-08-19T11:48:15;9.03;;;7.60;;
3789;SDS011;1910;49.042;9.028;2022-08-19T11:50:40;8.43;;;7.30;;
3789;SDS011;1910;49.042;9.028;2022-08-19T11:53:08;11.60;;;7.80;;
3789;SDS011;1910;49.042;9.028;2022-08-19T11:55:36;7.60;;;6.83;;
3789;SDS011;1910;49.042;9.028;2022-08-19T11:58:04;10.57;;;7.30;;
3789;SDS011;1910;49.042;9.028;2022-08-19T12:00:31;12.80;;;7.03;;
3789;SDS011;1910;49.042;9.028;2022-08-19T12:02:58;7.60;;;6.90;;
3789;SDS011;1910;49.042;9.028;2022-08-19T12:05:24;7.37;;;6.53;;
3789;SDS011;1910;49.042;9.028;2022-08-19T12:07:49;7.30;;;6.40;;
3789;SDS011;1910;49.042;9.028;2022-08-19T12:10:15;6.53;;;5.93;;
3789;SDS011;1910;49.042;9.028;2022-08-19T12:12:41;11.03;;;7.30;;
3789;SDS011;1910;49.042;9.028;2022-08-19T12:15:07;8.37;;;6.70;;
3789;SDS011;1910;49.042;9.028;2022-08-19T12:17:36;7.13;;;6.43;;
3789;SDS011;1910;49.042;9.028;2022-08-19T12:20:02;8.77;;;7.97;;
3789;SDS011;1910;49.042;9.028;2022-08-19T12:22:29;11.80;;;8.23;;
3789;SDS011;1910;49.042;9.028;2022-08-19T12:24:55;12.10;;;9.50;;
3789;SDS011;1910;49.042;9.028;2022-08-19T12:27:20;12.00;;;8.30;;
3789;SDS011;1910;49.042;9.028;2022-08-19T12:29:46;9.13;;;7.70;;
3789;SDS011;1910;49.042;9.028;2022-08-19T12:32:12;12.23;;;7.13;;
3789;SDS011;1910;49.042;9.028;2022-08-19T12:34:37;11.20;;;7.93;;
3789;SDS011;1910;49.042;9.028;2022-08-19T12:37:04;8.40;;;7.60;;
3789;SDS011;1910;49.042;9.028;2022-08-19T12:39:33;8.77;;;7.57;;
3789;SDS011;1910;49.042;9.028;2022-08-19T12:42:00;8.97;;;7.70;;
3789;SDS011;1910;49.042;9.028;2022-08-19T12:44:26;12.27;;;7.73;;
3789;SDS011;1910;49.042;9.028;2022-08-19T12:46:52;10.37;;;7.40;;
3789;SDS011;1910;49.042;9.028;2022-08-19T12:49:18;10.53;;;6.70;;
3789;SDS011;1910;49.042;9.028;2022-08-19T12:51:43;11.00;;;7.80;;
3789;SDS011;1910;49.042;9.028;2022-08-19T12:54:09;7.50;;;6.63;;
3789;SDS011;1910;49.042;9.028;2022-08-19T12:56:34;10.13;;;7.33;;
3789;SDS011;1910;49.042;9.028;2022-08-19T12:59:02;8.37;;;7.53;;
3789;SDS011;1910;49.042;9.028;2022-08-19T13:01:28;7.50;;;6.80;;
3789;SDS011;1910;49.042;9.028;2022-08-19T13:03:57;9.03;;;8.13;;
3789;SDS011;1910;49.042;9.028;2022-08-19T13:06:23;9.50;;;8.70;;
3789;SDS011;1910;49.042;9.028;2022-08-19T13:08:48;9.67;;;8.77;;
3789;SDS011;1910;49.042;9.028;2022-08-19T13:11:15;12.13;;;9.80;;
3789;SDS011;1910;49.042;9.028;2022-08-19T13:13:44;11.17;;;10.17;;
3789;SDS011;1910;49.042;9.028;2022-08-19T13:16:11;11.43;;;9.87;;
3789;SDS011;1910;49.042;9.028;2022-08-19T13:18:38;10.73;;;9.83;;
3789;SDS011;1910;49.042;9.028;2022-08-19T13:21:05;10.77;;;9.67;;
3789;SDS011;1910;49.042;9.028;2022-08-19T13:23:33;10.60;;;9.50;;
3789;SDS011;1910;49.042;9.028;2022-08-19T13:26:02;10.40;;;9.40;;
3789;SDS011;1910;49.042;9.028;2022-08-19T13:28:31;14.10;;;10.80;;
3789;SDS011;1910;49.042;9.028;2022-08-19T13:31:16;10.60;;;8.60;;
3789;SDS011;1910;49.042;9.028;2022-08-19T13:34:01;14.13;;;10.83;;
3789;SDS011;1910;49.042;9.028;2022-08-19T13:36:27;9.60;;;8.57;;
3789;SDS011;1910;49.042;9.028;2022-08-19T13:38:53;10.70;;;9.70;;
3789;SDS011;1910;49.042;9.028;2022-08-19T13:41:19;8.90;;;8.10;;
3789;SDS011;1910;49.042;9.028;2022-08-19T13:43:44;9.83;;;8.83;;
3789;SDS011;1910;49.042;9.028;2022-08-19T13:46:11;9.03;;;8.33;;
3789;SDS011;1910;49.042;9.028;2022-08-19T13:48:39;8.60;;;7.90;;
3789;SDS011;1910;49.042;9.028;2022-08-19T13:51:06;10.67;;;9.67;;
3789;SDS011;1910;49.042;9.028;2022-08-19T13:53:35;9.57;;;8.67;;
3789;SDS011;1910;49.042;9.028;2022-08-19T13:56:05;11.40;;;8.63;;
3789;SDS011;1910;49.042;9.028;2022-08-19T13:58:31;10.93;;;9.23;;
3789;SDS011;1910;49.042;9.028;2022-08-19T14:00:56;10.53;;;8.40;;
3789;SDS011;1910;49.042;9.028;2022-08-19T14:03:24;10.67;;;9.17;;
3789;SDS011;1910;49.042;9.028;2022-08-19T14:05:50;15.43;;;9.47;;
3789;SDS011;1910;49.042;9.028;2022-08-19T14:08:15;11.80;;;9.63;;
3789;SDS011;1910;49.042;9.028;2022-08-19T14:10:41;17.57;;;9.67;;
3789;SDS011;1910;49.042;9.028;2022-08-19T14:13:09;10.20;;;9.30;;
3789;SDS011;1910;49.042;9.028;2022-08-19T14:15:35;9.20;;;8.40;;
3789;SDS011;1910;49.042;9.028;2022-08-19T14:18:02;9.40;;;8.53;;
3789;SDS011;1910;49.042;9.028;2022-08-19T14:20:29;8.63;;;7.83;;
3789;SDS011;1910;49.042;9.028;2022-08-19T14:22:54;11.03;;;8.33;;
3789;SDS011;1910;49.042;9.028;2022-08-19T14:25:21;8.00;;;7.27;;
3789;SDS011;1910;49.042;9.028;2022-08-19T14:27:51;9.37;;;8.17;;
3789;SDS011;1910;49.042;9.028;2022-08-19T14:30:18;9.97;;;8.77;;
3789;SDS011;1910;49.042;9.028;2022-08-19T14:32:47;7.83;;;7.10;;
3789;SDS011;1910;49.042;9.028;2022-08-19T14:35:13;8.07;;;7.37;;
3789;SDS011;1910;49.042;9.028;2022-08-19T14:37:40;9.03;;;8.17;;
3789;SDS011;1910;49.042;9.028;2022-08-19T14:40:09;8.03;;;7.33;;
3789;SDS011;1910;49.042;9.028;2022-08-19T14:42:36;8.00;;;7.30;;
3789;SDS011;1910;49.042;9.028;2022-08-19T14:45:02;8.40;;;7.47;;
3789;SDS011;1910;49.042;9.028;2022-08-19T14:47:30;7.23;;;6.53;;
3789;SDS011;1910;49.042;9.028;2022-08-19T14:49:55;7.70;;;6.80;;
3789;SDS011;1910;49.042;9.028;2022-08-19T14:52:21;9.20;;;8.30;;
3789;SDS011;1910;49.042;9.028;2022-08-19T14:54:47;7.93;;;7.00;;
3789;SDS011;1910;49.042;9.028;2022-08-19T14:57:13;8.83;;;7.27;;
3789;SDS011;1910;49.042;9.028;2022-08-19T14:59:40;9.23;;;7.40;;
3789;SDS011;1910;49.042;9.028;2022-08-19T15:02:07;8.93;;;6.73;;
3789;SDS011;1910;49.042;9.028;2022-08-19T15:04:32;6.83;;;6.23;;
3789;SDS011;1910;49.042;9.028;2022-08-19T15:06:58;7.87;;;7.07;;